sensor_id;sensor_type;location;lat;lon;timestamp;P1;durP1;ratioP1;P2;durP2;ratioP2
37201;SDS011;37799;52.390;6.136;2024-02-04T00:00:22;9.15;;;3.85;;
37201;SDS011;37799;52.390;6.136;2024-02-04T00:02:47;9.02;;;3.50;;
37201;SDS011;37799;52.390;6.136;2024-02-04T00:05:12;11.63;;;4.20;;
37201;SDS011;37799;52.390;6.136;2024-02-04T00:07:38;9.10;;;3.80;;
37201;SDS011;37799;52.390;6.136;2024-02-04T00:10:03;8.13;;;3.60;;
37201;SDS011;37799;52.390;6.136;2024-02-04T00:12:29;8.05;;;3.25;;
37201;SDS011;37799;52.390;6.136;2024-02-04T00:14:54;8.88;;;3.58;;
37201;SDS011;37799;52.390;6.136;2024-02-04T00:17:19;14.57;;;4.63;;
37201;SDS011;37799;52.390;6.136;2024-02-04T00:19:45;9.55;;;4.03;;
37201;SDS011;37799;52.390;6.136;2024-02-04T00:22:10;10.70;;;4.60;;
37201;SDS011;37799;52.390;6.136;2024-02-04T00:24:36;10.95;;;4.50;;
37201;SDS011;37799;52.390;6.136;2024-02-04T00:27:01;12.32;;;4.68;;
37201;SDS011;37799;52.390;6.136;2024-02-04T00:29:26;11.55;;;4.43;;
37201;SDS011;37799;52.390;6.136;2024-02-04T00:31:52;12.40;;;4.97;;
37201;SDS011;37799;52.390;6.136;2024-02-04T00:34:17;13.32;;;4.45;;
37201;SDS011;37799;52.390;6.136;2024-02-04T00:36:42;10.82;;;4.60;;
37201;SDS011;37799;52.390;6.136;2024-02-04T00:39:08;12.35;;;4.30;;
37201;SDS011;37799;52.390;6.136;2024-02-04T00:41:34;12.90;;;5.22;;
37201;SDS011;37799;52.390;6.136;2024-02-04T00:43:59;9.95;;;3.92;;
37201;SDS011;37799;52.390;6.136;2024-02-04T00:46:25;13.10;;;3.88;;
37201;SDS011;37799;52.390;6.136;2024-02-04T00:48:50;9.43;;;3.85;;
37201;SDS011;37799;52.390;6.136;2024-02-04T00:51:16;9.38;;;3.70;;
37201;SDS011;37799;52.390;6.136;2024-02-04T00:53:44;11.15;;;3.40;;
37201;SDS011;37799;52.390;6.136;2024-02-04T00:56:10;8.48;;;2.85;;
37201;SDS011;37799;52.390;6.136;2024-02-04T00:58:36;10.45;;;3.60;;
37201;SDS011;37799;52.390;6.136;2024-02-04T01:01:02;8.75;;;3.22;;
37201;SDS011;37799;52.390;6.136;2024-02-04T01:03:28;10.60;;;3.17;;
37201;SDS011;37799;52.390;6.136;2024-02-04T01:05:54;10.23;;;3.22;;
37201;SDS011;37799;52.390;6.136;2024-02-04T01:08:20;8.73;;;3.33;;
37201;SDS011;37799;52.390;6.136;2024-02-04T01:10:46;8.00;;;3.00;;
37201;SDS011;37799;52.390;6.136;2024-02-04T01:13:11;13.65;;;3.55;;
37201;SDS011;37799;52.390;6.136;2024-02-04T01:15:37;11.68;;;3.83;;
37201;SDS011;37799;52.390;6.136;2024-02-04T01:18:02;9.68;;;3.75;;
37201;SDS011;37799;52.390;6.136;2024-02-04T01:20:27;9.27;;;4.00;;
37201;SDS011;37799;52.390;6.136;2024-02-04T01:22:53;12.05;;;4.03;;
37201;SDS011;37799;52.390;6.136;2024-02-04T01:25:18;10.70;;;3.92;;
37201;SDS011;37799;52.390;6.136;2024-02-04T01:27:43;9.07;;;3.97;;
37201;SDS011;37799;52.390;6.136;2024-02-04T01:30:09;10.90;;;3.80;;
37201;SDS011;37799;52.390;6.136;2024-02-04T01:32:34;12.38;;;4.40;;
37201;SDS011;37799;52.390;6.136;2024-02-04T01:34:59;10.43;;;4.32;;
37201;SDS011;37799;52.390;6.136;2024-02-04T01:37:25;10.75;;;4.25;;
37201;SDS011;37799;52.390;6.136;2024-02-04T01:39:50;9.90;;;4.40;;
37201;SDS011;37799;52.390;6.136;2024-02-04T01:42:15;10.38;;;3.75;;
37201;SDS011;37799;52.390;6.136;2024-02-04T01:44:41;9.27;;;3.20;;
37201;SDS011;37799;52.390;6.136;2024-02-04T01:47:07;11.95;;;4.32;;
37201;SDS011;37799;52.390;6.136;2024-02-04T01:49:32;10.52;;;3.78;;
37201;SDS011;37799;52.390;6.136;2024-02-04T01:51:57;13.25;;;4.05;;
37201;SDS011;37799;52.390;6.136;2024-02-04T01:54:23;11.82;;;3.60;;
37201;SDS011;37799;52.390;6.136;2024-02-04T01:56:50;11.75;;;3.83;;
37201;SDS011;37799;52.390;6.136;2024-02-04T01:59:17;10.23;;;3.75;;
37201;SDS011;37799;52.390;6.136;2024-02-04T02:01:44;9.85;;;3.80;;
37201;SDS011;37799;52.390;6.136;2024-02-04T02:04:10;8.68;;;4.00;;
37201;SDS011;37799;52.390;6.136;2024-02-04T02:06:35;11.95;;;2.90;;
37201;SDS011;37799;52.390;6.136;2024-02-04T02:11:43;10.30;;;2.72;;
37201;SDS011;37799;52.390;6.136;2024-02-04T02:14:13;10.93;;;2.67;;
37201;SDS011;37799;52.390;6.136;2024-02-04T02:16:41;9.03;;;2.83;;
37201;SDS011;37799;52.390;6.136;2024-02-04T02:22:04;10.07;;;2.97;;
37201;SDS011;37799;52.390;6.136;2024-02-04T02:24:39;9.05;;;2.70;;
37201;SDS011;37799;52.390;6.136;2024-02-04T02:27:07;9.85;;;2.35;;
37201;SDS011;37799;52.390;6.136;2024-02-04T02:29:32;8.40;;;2.70;;
37201;SDS011;37799;52.390;6.136;2024-02-04T02:31:58;8.02;;;2.50;;
37201;SDS011;37799;52.390;6.136;2024-02-04T02:34:24;8.07;;;2.78;;
37201;SDS011;37799;52.390;6.136;2024-02-04T02:36:55;10.02;;;2.92;;
37201;SDS011;37799;52.390;6.136;2024-02-04T02:39:27;9.90;;;3.38;;
37201;SDS011;37799;52.390;6.136;2024-02-04T02:41:59;11.52;;;3.30;;
37201;SDS011;37799;52.390;6.136;2024-02-04T02:44:26;10.13;;;3.15;;
37201;SDS011;37799;52.390;6.136;2024-02-04T02:46:52;12.82;;;3.20;;
37201;SDS011;37799;52.390;6.136;2024-02-04T02:49:21;10.15;;;3.22;;
37201;SDS011;37799;52.390;6.136;2024-02-04T02:51:46;10.63;;;2.60;;
37201;SDS011;37799;52.390;6.136;2024-02-04T02:54:11;9.85;;;3.10;;
37201;SDS011;37799;52.390;6.136;2024-02-04T02:56:37;11.55;;;3.75;;
37201;SDS011;37799;52.390;6.136;2024-02-04T02:59:02;10.48;;;3.13;;
37201;SDS011;37799;52.390;6.136;2024-02-04T03:01:28;11.40;;;3.35;;
37201;SDS011;37799;52.390;6.136;2024-02-04T03:03:54;10.77;;;3.47;;
37201;SDS011;37799;52.390;6.136;2024-02-04T03:06:19;10.70;;;2.90;;
37201;SDS011;37799;52.390;6.136;2024-02-04T03:08:44;8.35;;;2.95;;
37201;SDS011;37799;52.390;6.136;2024-02-04T03:11:10;11.13;;;2.60;;
37201;SDS011;37799;52.390;6.136;2024-02-04T03:13:37;8.07;;;2.50;;
37201;SDS011;37799;52.390;6.136;2024-02-04T03:16:04;10.15;;;2.53;;
37201;SDS011;37799;52.390;6.136;2024-02-04T03:18:29;7.22;;;1.85;;
37201;SDS011;37799;52.390;6.136;2024-02-04T03:20:55;9.23;;;2.33;;
37201;SDS011;37799;52.390;6.136;2024-02-04T03:23:20;7.88;;;2.13;;
37201;SDS011;37799;52.390;6.136;2024-02-04T03:25:45;9.85;;;2.13;;
37201;SDS011;37799;52.390;6.136;2024-02-04T03:28:10;9.95;;;2.20;;
37201;SDS011;37799;52.390;6.136;2024-02-04T03:30:36;8.52;;;1.40;;
37201;SDS011;37799;52.390;6.136;2024-02-04T03:33:01;8.18;;;1.65;;
37201;SDS011;37799;52.390;6.136;2024-02-04T03:35:26;7.53;;;1.45;;
37201;SDS011;37799;52.390;6.136;2024-02-04T03:37:51;7.75;;;1.65;;
37201;SDS011;37799;52.390;6.136;2024-02-04T03:40:17;8.68;;;1.35;;
37201;SDS011;37799;52.390;6.136;2024-02-04T03:42:44;7.90;;;1.27;;
37201;SDS011;37799;52.390;6.136;2024-02-04T03:45:09;6.03;;;1.25;;
37201;SDS011;37799;52.390;6.136;2024-02-04T03:47:35;7.47;;;1.38;;
37201;SDS011;37799;52.390;6.136;2024-02-04T03:50:00;5.32;;;1.40;;
37201;SDS011;37799;52.390;6.136;2024-02-04T03:52:25;8.30;;;1.33;;
37201;SDS011;37799;52.390;6.136;2024-02-04T03:54:52;6.30;;;1.42;;
37201;SDS011;37799;52.390;6.136;2024-02-04T03:57:17;9.00;;;1.50;;
37201;SDS011;37799;52.390;6.136;2024-02-04T03:59:45;8.32;;;1.83;;
37201;SDS011;37799;52.390;6.136;2024-02-04T04:02:11;6.95;;;1.48;;
37201;SDS011;37799;52.390;6.136;2024-02-04T04:04:39;6.05;;;1.30;;
37201;SDS011;37799;52.390;6.136;2024-02-04T04:07:05;10.90;;;1.55;;
37201;SDS011;37799;52.390;6.136;2024-02-04T04:09:30;8.93;;;1.50;;
37201;SDS011;37799;52.390;6.136;2024-02-04T04:11:56;12.23;;;1.33;;
37201;SDS011;37799;52.390;6.136;2024-02-04T04:14:21;7.35;;;1.50;;
37201;SDS011;37799;52.390;6.136;2024-02-04T04:16:46;6.13;;;1.05;;
37201;SDS011;37799;52.390;6.136;2024-02-04T04:19:11;7.47;;;1.30;;
37201;SDS011;37799;52.390;6.136;2024-02-04T04:21:37;6.18;;;0.98;;
37201;SDS011;37799;52.390;6.136;2024-02-04T04:24:03;5.78;;;0.90;;
37201;SDS011;37799;52.390;6.136;2024-02-04T04:26:29;10.68;;;1.48;;
37201;SDS011;37799;52.390;6.136;2024-02-04T04:28:54;6.20;;;0.80;;
37201;SDS011;37799;52.390;6.136;2024-02-04T04:31:20;5.40;;;0.80;;
37201;SDS011;37799;52.390;6.136;2024-02-04T04:33:45;7.60;;;0.93;;
37201;SDS011;37799;52.390;6.136;2024-02-04T04:36:10;5.40;;;0.80;;
37201;SDS011;37799;52.390;6.136;2024-02-04T04:38:35;5.25;;;0.98;;
37201;SDS011;37799;52.390;6.136;2024-02-04T04:41:01;6.97;;;0.73;;
37201;SDS011;37799;52.390;6.136;2024-02-04T04:43:26;7.38;;;0.60;;
37201;SDS011;37799;52.390;6.136;2024-02-04T04:45:52;8.13;;;0.98;;
37201;SDS011;37799;52.390;6.136;2024-02-04T04:48:17;7.40;;;1.75;;
37201;SDS011;37799;52.390;6.136;2024-02-04T04:50:42;7.38;;;1.08;;
37201;SDS011;37799;52.390;6.136;2024-02-04T04:53:08;6.18;;;0.70;;
37201;SDS011;37799;52.390;6.136;2024-02-04T04:55:33;4.30;;;0.60;;
37201;SDS011;37799;52.390;6.136;2024-02-04T04:57:58;3.22;;;0.63;;
37201;SDS011;37799;52.390;6.136;2024-02-04T05:00:23;8.15;;;0.70;;
37201;SDS011;37799;52.390;6.136;2024-02-04T05:02:49;5.25;;;0.70;;
37201;SDS011;37799;52.390;6.136;2024-02-04T05:05:14;3.40;;;0.45;;
37201;SDS011;37799;52.390;6.136;2024-02-04T05:07:40;7.63;;;0.70;;
37201;SDS011;37799;52.390;6.136;2024-02-04T05:10:05;6.00;;;0.57;;
37201;SDS011;37799;52.390;6.136;2024-02-04T05:12:32;6.50;;;1.08;;
37201;SDS011;37799;52.390;6.136;2024-02-04T05:14:58;3.47;;;0.50;;
37201;SDS011;37799;52.390;6.136;2024-02-04T05:17:23;3.20;;;0.50;;
37201;SDS011;37799;52.390;6.136;2024-02-04T05:19:48;3.60;;;0.50;;
37201;SDS011;37799;52.390;6.136;2024-02-04T05:22:14;9.88;;;0.60;;
37201;SDS011;37799;52.390;6.136;2024-02-04T05:24:40;3.13;;;0.45;;
37201;SDS011;37799;52.390;6.136;2024-02-04T05:27:06;4.28;;;0.50;;
37201;SDS011;37799;52.390;6.136;2024-02-04T05:29:31;6.00;;;0.80;;
37201;SDS011;37799;52.390;6.136;2024-02-04T05:31:56;4.15;;;0.45;;
37201;SDS011;37799;52.390;6.136;2024-02-04T05:34:22;3.97;;;0.40;;
37201;SDS011;37799;52.390;6.136;2024-02-04T05:36:47;7.28;;;0.57;;
37201;SDS011;37799;52.390;6.136;2024-02-04T05:39:13;5.75;;;0.82;;
37201;SDS011;37799;52.390;6.136;2024-02-04T05:41:41;2.90;;;0.50;;
37201;SDS011;37799;52.390;6.136;2024-02-04T05:44:06;3.15;;;0.73;;
37201;SDS011;37799;52.390;6.136;2024-02-04T05:46:34;3.95;;;0.50;;
37201;SDS011;37799;52.390;6.136;2024-02-04T05:49:03;6.90;;;0.45;;
37201;SDS011;37799;52.390;6.136;2024-02-04T05:51:31;6.05;;;0.50;;
37201;SDS011;37799;52.390;6.136;2024-02-04T05:53:57;8.57;;;0.60;;
37201;SDS011;37799;52.390;6.136;2024-02-04T05:56:22;2.60;;;0.30;;
37201;SDS011;37799;52.390;6.136;2024-02-04T05:58:48;2.35;;;0.40;;
37201;SDS011;37799;52.390;6.136;2024-02-04T06:01:14;8.15;;;0.57;;
37201;SDS011;37799;52.390;6.136;2024-02-04T06:03:41;8.98;;;0.55;;
37201;SDS011;37799;52.390;6.136;2024-02-04T06:06:07;6.10;;;0.63;;
37201;SDS011;37799;52.390;6.136;2024-02-04T06:08:32;9.18;;;0.70;;
37201;SDS011;37799;52.390;6.136;2024-02-04T06:10:57;8.15;;;1.08;;
37201;SDS011;37799;52.390;6.136;2024-02-04T06:13:22;3.97;;;0.55;;
37201;SDS011;37799;52.390;6.136;2024-02-04T06:15:49;5.80;;;0.80;;
37201;SDS011;37799;52.390;6.136;2024-02-04T06:18:14;3.90;;;0.43;;
37201;SDS011;37799;52.390;6.136;2024-02-04T06:20:39;5.07;;;0.30;;
37201;SDS011;37799;52.390;6.136;2024-02-04T06:23:04;3.78;;;0.30;;
37201;SDS011;37799;52.390;6.136;2024-02-04T06:25:30;6.15;;;0.50;;
37201;SDS011;37799;52.390;6.136;2024-02-04T06:27:55;4.00;;;0.35;;
37201;SDS011;37799;52.390;6.136;2024-02-04T06:30:20;7.57;;;0.60;;
37201;SDS011;37799;52.390;6.136;2024-02-04T06:32:47;3.97;;;0.38;;
37201;SDS011;37799;52.390;6.136;2024-02-04T06:35:14;9.88;;;0.73;;
37201;SDS011;37799;52.390;6.136;2024-02-04T06:37:40;4.72;;;0.40;;
37201;SDS011;37799;52.390;6.136;2024-02-04T06:40:06;5.07;;;0.43;;
37201;SDS011;37799;52.390;6.136;2024-02-04T06:42:32;8.50;;;0.77;;
37201;SDS011;37799;52.390;6.136;2024-02-04T06:44:57;8.80;;;0.47;;
37201;SDS011;37799;52.390;6.136;2024-02-04T06:47:22;8.60;;;0.70;;
37201;SDS011;37799;52.390;6.136;2024-02-04T06:49:48;4.50;;;0.50;;
37201;SDS011;37799;52.390;6.136;2024-02-04T06:52:13;4.70;;;0.50;;
37201;SDS011;37799;52.390;6.136;2024-02-04T06:54:38;5.78;;;0.30;;
37201;SDS011;37799;52.390;6.136;2024-02-04T06:57:03;10.80;;;0.80;;
37201;SDS011;37799;52.390;6.136;2024-02-04T06:59:29;3.63;;;0.38;;
37201;SDS011;37799;52.390;6.136;2024-02-04T07:01:54;5.00;;;0.50;;
37201;SDS011;37799;52.390;6.136;2024-02-04T07:04:20;3.58;;;0.38;;
37201;SDS011;37799;52.390;6.136;2024-02-04T07:06:47;6.30;;;0.40;;
37201;SDS011;37799;52.390;6.136;2024-02-04T07:09:12;9.23;;;0.60;;
37201;SDS011;37799;52.390;6.136;2024-02-04T07:11:38;6.22;;;0.63;;
37201;SDS011;37799;52.390;6.136;2024-02-04T07:14:03;7.90;;;0.50;;
37201;SDS011;37799;52.390;6.136;2024-02-04T07:16:28;7.88;;;0.50;;
37201;SDS011;37799;52.390;6.136;2024-02-04T07:18:54;4.00;;;1.00;;
37201;SDS011;37799;52.390;6.136;2024-02-04T07:21:21;8.15;;;0.95;;
37201;SDS011;37799;52.390;6.136;2024-02-04T07:23:46;4.90;;;0.60;;
37201;SDS011;37799;52.390;6.136;2024-02-04T07:26:11;5.50;;;0.60;;
37201;SDS011;37799;52.390;6.136;2024-02-04T07:28:37;9.82;;;0.82;;
37201;SDS011;37799;52.390;6.136;2024-02-04T07:31:02;5.70;;;0.65;;
37201;SDS011;37799;52.390;6.136;2024-02-04T07:33:28;7.90;;;1.33;;
37201;SDS011;37799;52.390;6.136;2024-02-04T07:35:53;6.40;;;0.70;;
37201;SDS011;37799;52.390;6.136;2024-02-04T07:38:18;4.55;;;0.70;;
37201;SDS011;37799;52.390;6.136;2024-02-04T07:40:43;5.15;;;0.90;;
37201;SDS011;37799;52.390;6.136;2024-02-04T07:43:09;5.70;;;1.05;;
37201;SDS011;37799;52.390;6.136;2024-02-04T07:45:34;5.70;;;0.90;;
37201;SDS011;37799;52.390;6.136;2024-02-04T07:48:00;8.25;;;0.82;;
37201;SDS011;37799;52.390;6.136;2024-02-04T07:50:25;6.38;;;1.02;;
37201;SDS011;37799;52.390;6.136;2024-02-04T07:52:51;10.48;;;1.15;;
37201;SDS011;37799;52.390;6.136;2024-02-04T07:55:16;6.57;;;0.90;;
37201;SDS011;37799;52.390;6.136;2024-02-04T07:57:42;6.70;;;0.95;;
37201;SDS011;37799;52.390;6.136;2024-02-04T08:00:07;4.53;;;0.85;;
37201;SDS011;37799;52.390;6.136;2024-02-04T08:02:35;8.93;;;0.77;;
37201;SDS011;37799;52.390;6.136;2024-02-04T08:05:00;4.35;;;1.75;;
37201;SDS011;37799;52.390;6.136;2024-02-04T08:07:26;7.43;;;0.95;;
37201;SDS011;37799;52.390;6.136;2024-02-04T08:09:51;6.82;;;0.95;;
37201;SDS011;37799;52.390;6.136;2024-02-04T08:12:17;4.07;;;0.95;;
37201;SDS011;37799;52.390;6.136;2024-02-04T08:14:42;4.68;;;0.68;;
37201;SDS011;37799;52.390;6.136;2024-02-04T08:17:08;2.60;;;0.60;;
37201;SDS011;37799;52.390;6.136;2024-02-04T08:19:33;5.28;;;0.55;;
37201;SDS011;37799;52.390;6.136;2024-02-04T08:21:58;8.45;;;0.90;;
37201;SDS011;37799;52.390;6.136;2024-02-04T08:24:24;6.75;;;0.95;;
37201;SDS011;37799;52.390;6.136;2024-02-04T08:26:49;5.88;;;0.63;;
37201;SDS011;37799;52.390;6.136;2024-02-04T08:29:15;2.65;;;0.45;;
37201;SDS011;37799;52.390;6.136;2024-02-04T08:31:40;6.47;;;0.60;;
37201;SDS011;37799;52.390;6.136;2024-02-04T08:34:05;3.13;;;0.40;;
37201;SDS011;37799;52.390;6.136;2024-02-04T08:36:32;3.20;;;1.13;;
37201;SDS011;37799;52.390;6.136;2024-02-04T08:38:57;2.58;;;0.50;;
37201;SDS011;37799;52.390;6.136;2024-02-04T08:41:23;3.42;;;0.40;;
37201;SDS011;37799;52.390;6.136;2024-02-04T08:43:49;4.25;;;0.50;;
37201;SDS011;37799;52.390;6.136;2024-02-04T08:46:14;5.18;;;1.17;;
37201;SDS011;37799;52.390;6.136;2024-02-04T08:48:41;3.63;;;0.43;;
37201;SDS011;37799;52.390;6.136;2024-02-04T08:51:14;5.05;;;0.70;;
37201;SDS011;37799;52.390;6.136;2024-02-04T08:53:41;3.90;;;0.70;;
37201;SDS011;37799;52.390;6.136;2024-02-04T08:56:07;3.33;;;0.52;;
37201;SDS011;37799;52.390;6.136;2024-02-04T08:58:33;6.22;;;0.63;;
37201;SDS011;37799;52.390;6.136;2024-02-04T09:00:59;5.97;;;0.90;;
37201;SDS011;37799;52.390;6.136;2024-02-04T09:03:24;5.50;;;1.17;;
37201;SDS011;37799;52.390;6.136;2024-02-04T09:05:50;5.25;;;1.00;;
37201;SDS011;37799;52.390;6.136;2024-02-04T09:08:15;3.33;;;0.60;;
37201;SDS011;37799;52.390;6.136;2024-02-04T09:10:40;5.53;;;1.30;;
37201;SDS011;37799;52.390;6.136;2024-02-04T09:13:06;6.15;;;1.30;;
37201;SDS011;37799;52.390;6.136;2024-02-04T09:15:31;6.80;;;1.52;;
37201;SDS011;37799;52.390;6.136;2024-02-04T09:17:57;5.68;;;1.50;;
37201;SDS011;37799;52.390;6.136;2024-02-04T09:20:22;7.85;;;1.90;;
37201;SDS011;37799;52.390;6.136;2024-02-04T09:22:47;6.00;;;1.67;;
37201;SDS011;37799;52.390;6.136;2024-02-04T09:25:13;7.80;;;2.05;;
37201;SDS011;37799;52.390;6.136;2024-02-04T09:27:39;6.32;;;1.88;;
37201;SDS011;37799;52.390;6.136;2024-02-04T09:30:04;6.15;;;1.60;;
37201;SDS011;37799;52.390;6.136;2024-02-04T09:32:30;7.38;;;1.75;;
37201;SDS011;37799;52.390;6.136;2024-02-04T09:34:56;9.45;;;1.90;;
37201;SDS011;37799;52.390;6.136;2024-02-04T09:37:21;7.40;;;2.00;;
37201;SDS011;37799;52.390;6.136;2024-02-04T09:39:47;5.90;;;1.75;;
37201;SDS011;37799;52.390;6.136;2024-02-04T09:42:15;7.70;;;2.20;;
37201;SDS011;37799;52.390;6.136;2024-02-04T09:44:45;7.32;;;2.45;;
37201;SDS011;37799;52.390;6.136;2024-02-04T09:47:11;8.63;;;1.90;;
37201;SDS011;37799;52.390;6.136;2024-02-04T09:49:38;6.40;;;1.60;;
37201;SDS011;37799;52.390;6.136;2024-02-04T09:52:04;9.55;;;1.48;;
37201;SDS011;37799;52.390;6.136;2024-02-04T09:54:34;5.63;;;1.48;;
37201;SDS011;37799;52.390;6.136;2024-02-04T09:57:09;6.65;;;1.50;;
37201;SDS011;37799;52.390;6.136;2024-02-04T09:59:34;4.57;;;1.23;;
37201;SDS011;37799;52.390;6.136;2024-02-04T10:02:00;8.40;;;1.52;;
37201;SDS011;37799;52.390;6.136;2024-02-04T10:04:28;5.55;;;1.20;;
37201;SDS011;37799;52.390;6.136;2024-02-04T10:06:53;5.20;;;0.90;;
37201;SDS011;37799;52.390;6.136;2024-02-04T10:09:19;4.95;;;1.30;;
37201;SDS011;37799;52.390;6.136;2024-02-04T10:11:44;5.13;;;1.13;;
37201;SDS011;37799;52.390;6.136;2024-02-04T10:14:09;5.35;;;0.70;;
37201;SDS011;37799;52.390;6.136;2024-02-04T10:16:35;8.10;;;1.17;;
37201;SDS011;37799;52.390;6.136;2024-02-04T10:19:01;5.13;;;1.20;;
37201;SDS011;37799;52.390;6.136;2024-02-04T10:21:26;6.30;;;0.85;;
37201;SDS011;37799;52.390;6.136;2024-02-04T10:23:51;6.03;;;1.10;;
37201;SDS011;37799;52.390;6.136;2024-02-04T10:26:17;5.05;;;1.20;;
37201;SDS011;37799;52.390;6.136;2024-02-04T10:28:45;4.20;;;0.95;;
37201;SDS011;37799;52.390;6.136;2024-02-04T10:31:12;5.63;;;1.02;;
37201;SDS011;37799;52.390;6.136;2024-02-04T10:33:37;9.15;;;1.77;;
37201;SDS011;37799;52.390;6.136;2024-02-04T10:36:03;5.70;;;1.30;;
37201;SDS011;37799;52.390;6.136;2024-02-04T10:38:29;4.28;;;1.02;;
37201;SDS011;37799;52.390;6.136;2024-02-04T10:40:54;6.00;;;1.40;;
37201;SDS011;37799;52.390;6.136;2024-02-04T10:43:23;5.32;;;1.08;;
37201;SDS011;37799;52.390;6.136;2024-02-04T10:45:49;4.53;;;1.08;;
37201;SDS011;37799;52.390;6.136;2024-02-04T10:48:20;4.07;;;1.20;;
37201;SDS011;37799;52.390;6.136;2024-02-04T10:50:51;6.53;;;1.00;;
37201;SDS011;37799;52.390;6.136;2024-02-04T10:53:21;4.88;;;1.08;;
37201;SDS011;37799;52.390;6.136;2024-02-04T10:55:47;6.10;;;0.98;;
37201;SDS011;37799;52.390;6.136;2024-02-04T10:58:14;6.32;;;1.00;;
37201;SDS011;37799;52.390;6.136;2024-02-04T11:00:41;4.57;;;1.00;;
37201;SDS011;37799;52.390;6.136;2024-02-04T11:03:08;5.53;;;0.80;;
37201;SDS011;37799;52.390;6.136;2024-02-04T11:05:35;3.55;;;0.65;;
37201;SDS011;37799;52.390;6.136;2024-02-04T11:08:04;2.67;;;0.70;;
37201;SDS011;37799;52.390;6.136;2024-02-04T11:10:29;3.50;;;0.57;;
37201;SDS011;37799;52.390;6.136;2024-02-04T11:12:57;3.60;;;0.55;;
37201;SDS011;37799;52.390;6.136;2024-02-04T11:15:26;1.90;;;0.30;;
37201;SDS011;37799;52.390;6.136;2024-02-04T11:25:53;2.95;;;0.50;;
37201;SDS011;37799;52.390;6.136;2024-02-04T11:28:21;4.72;;;0.70;;
37201;SDS011;37799;52.390;6.136;2024-02-04T11:30:48;5.78;;;0.70;;
37201;SDS011;37799;52.390;6.136;2024-02-04T11:33:20;4.78;;;0.93;;
37201;SDS011;37799;52.390;6.136;2024-02-04T11:35:47;3.47;;;0.87;;
37201;SDS011;37799;52.390;6.136;2024-02-04T11:38:23;2.30;;;0.40;;
37201;SDS011;37799;52.390;6.136;2024-02-04T11:40:54;3.08;;;0.30;;
37201;SDS011;37799;52.390;6.136;2024-02-04T11:43:22;4.22;;;0.40;;
37201;SDS011;37799;52.390;6.136;2024-02-04T11:45:51;5.30;;;0.50;;
37201;SDS011;37799;52.390;6.136;2024-02-04T11:48:18;2.58;;;0.52;;
37201;SDS011;37799;52.390;6.136;2024-02-04T11:50:43;2.22;;;0.30;;
37201;SDS011;37799;52.390;6.136;2024-02-04T11:53:09;3.42;;;0.50;;
37201;SDS011;37799;52.390;6.136;2024-02-04T11:55:35;1.92;;;0.40;;
37201;SDS011;37799;52.390;6.136;2024-02-04T11:58:01;3.00;;;0.50;;
37201;SDS011;37799;52.390;6.136;2024-02-04T12:00:28;1.30;;;0.15;;
37201;SDS011;37799;52.390;6.136;2024-02-04T12:05:30;3.53;;;0.50;;
37201;SDS011;37799;52.390;6.136;2024-02-04T12:07:57;2.08;;;0.43;;
37201;SDS011;37799;52.390;6.136;2024-02-04T12:10:22;3.50;;;0.60;;
37201;SDS011;37799;52.390;6.136;2024-02-04T12:12:48;5.07;;;0.70;;
37201;SDS011;37799;52.390;6.136;2024-02-04T12:15:14;3.55;;;0.68;;
37201;SDS011;37799;52.390;6.136;2024-02-04T12:17:39;2.17;;;0.50;;
37201;SDS011;37799;52.390;6.136;2024-02-04T12:20:04;2.92;;;0.70;;
37201;SDS011;37799;52.390;6.136;2024-02-04T12:22:31;3.42;;;0.68;;
37201;SDS011;37799;52.390;6.136;2024-02-04T12:24:57;1.88;;;0.52;;
37201;SDS011;37799;52.390;6.136;2024-02-04T12:27:22;3.13;;;0.57;;
37201;SDS011;37799;52.390;6.136;2024-02-04T12:29:50;2.13;;;0.30;;
37201;SDS011;37799;52.390;6.136;2024-02-04T12:32:17;2.72;;;0.40;;
37201;SDS011;37799;52.390;6.136;2024-02-04T12:34:47;4.22;;;0.60;;
37201;SDS011;37799;52.390;6.136;2024-02-04T12:37:13;3.42;;;0.50;;
37201;SDS011;37799;52.390;6.136;2024-02-04T12:39:38;2.17;;;0.40;;
37201;SDS011;37799;52.390;6.136;2024-02-04T12:42:04;4.55;;;0.50;;
37201;SDS011;37799;52.390;6.136;2024-02-04T12:44:30;2.30;;;0.50;;
37201;SDS011;37799;52.390;6.136;2024-02-04T12:46:56;2.60;;;0.32;;
37201;SDS011;37799;52.390;6.136;2024-02-04T12:49:21;2.15;;;0.40;;
37201;SDS011;37799;52.390;6.136;2024-02-04T12:51:47;2.25;;;0.30;;
37201;SDS011;37799;52.390;6.136;2024-02-04T12:54:12;2.88;;;0.40;;
37201;SDS011;37799;52.390;6.136;2024-02-04T12:56:53;1.55;;;0.30;;
37201;SDS011;37799;52.390;6.136;2024-02-04T13:01:57;4.60;;;0.60;;
37201;SDS011;37799;52.390;6.136;2024-02-04T13:04:39;2.13;;;0.30;;
37201;SDS011;37799;52.390;6.136;2024-02-04T13:07:09;2.58;;;0.40;;
37201;SDS011;37799;52.390;6.136;2024-02-04T13:09:37;5.50;;;0.60;;
37201;SDS011;37799;52.390;6.136;2024-02-04T13:12:06;3.65;;;0.60;;
37201;SDS011;37799;52.390;6.136;2024-02-04T13:14:37;3.33;;;0.60;;
37201;SDS011;37799;52.390;6.136;2024-02-04T13:17:04;1.45;;;0.35;;
37201;SDS011;37799;52.390;6.136;2024-02-04T13:19:32;2.00;;;0.30;;
37201;SDS011;37799;52.390;6.136;2024-02-04T13:22:02;2.10;;;0.40;;
37201;SDS011;37799;52.390;6.136;2024-02-04T13:24:31;4.07;;;0.30;;
37201;SDS011;37799;52.390;6.136;2024-02-04T13:26:57;2.45;;;0.50;;
37201;SDS011;37799;52.390;6.136;2024-02-04T13:29:23;2.15;;;0.30;;
37201;SDS011;37799;52.390;6.136;2024-02-04T13:31:49;1.50;;;0.30;;
37201;SDS011;37799;52.390;6.136;2024-02-04T13:34:14;2.45;;;0.40;;
37201;SDS011;37799;52.390;6.136;2024-02-04T13:36:41;2.38;;;0.30;;
37201;SDS011;37799;52.390;6.136;2024-02-04T13:39:06;1.60;;;0.20;;
37201;SDS011;37799;52.390;6.136;2024-02-04T13:41:32;3.97;;;0.50;;
37201;SDS011;37799;52.390;6.136;2024-02-04T13:43:57;1.65;;;0.30;;
37201;SDS011;37799;52.390;6.136;2024-02-04T13:46:23;2.10;;;0.20;;
37201;SDS011;37799;52.390;6.136;2024-02-04T13:48:48;1.65;;;0.80;;
37201;SDS011;37799;52.390;6.136;2024-02-04T13:51:14;2.28;;;0.52;;
37201;SDS011;37799;52.390;6.136;2024-02-04T13:53:39;1.95;;;0.20;;
37201;SDS011;37799;52.390;6.136;2024-02-04T13:56:04;2.45;;;0.20;;
37201;SDS011;37799;52.390;6.136;2024-02-04T13:58:30;0.80;;;0.20;;
37201;SDS011;37799;52.390;6.136;2024-02-04T14:00:55;1.63;;;0.30;;
37201;SDS011;37799;52.390;6.136;2024-02-04T14:03:20;1.77;;;0.30;;
37201;SDS011;37799;52.390;6.136;2024-02-04T14:05:46;1.65;;;0.20;;
37201;SDS011;37799;52.390;6.136;2024-02-04T14:08:11;3.20;;;0.40;;
37201;SDS011;37799;52.390;6.136;2024-02-04T14:10:37;1.52;;;0.20;;
37201;SDS011;37799;52.390;6.136;2024-02-04T14:13:03;1.50;;;0.30;;
37201;SDS011;37799;52.390;6.136;2024-02-04T14:15:29;1.83;;;0.40;;
37201;SDS011;37799;52.390;6.136;2024-02-04T14:17:56;2.38;;;0.45;;
37201;SDS011;37799;52.390;6.136;2024-02-04T14:20:22;2.50;;;0.50;;
37201;SDS011;37799;52.390;6.136;2024-02-04T14:22:47;1.85;;;0.47;;
37201;SDS011;37799;52.390;6.136;2024-02-04T14:25:13;5.03;;;1.02;;
37201;SDS011;37799;52.390;6.136;2024-02-04T14:27:38;5.88;;;0.90;;
37201;SDS011;37799;52.390;6.136;2024-02-04T14:30:04;5.95;;;1.15;;
37201;SDS011;37799;52.390;6.136;2024-02-04T14:32:32;3.53;;;0.80;;
37201;SDS011;37799;52.390;6.136;2024-02-04T14:34:57;5.00;;;1.20;;
37201;SDS011;37799;52.390;6.136;2024-02-04T14:37:23;5.70;;;1.13;;
37201;SDS011;37799;52.390;6.136;2024-02-04T14:39:48;4.90;;;1.27;;
37201;SDS011;37799;52.390;6.136;2024-02-04T14:42:15;5.88;;;1.13;;
37201;SDS011;37799;52.390;6.136;2024-02-04T14:44:43;7.82;;;1.50;;
37201;SDS011;37799;52.390;6.136;2024-02-04T14:47:08;6.03;;;1.58;;
37201;SDS011;37799;52.390;6.136;2024-02-04T14:49:35;9.77;;;1.75;;
37201;SDS011;37799;52.390;6.136;2024-02-04T14:52:00;7.40;;;1.45;;
37201;SDS011;37799;52.390;6.136;2024-02-04T14:54:25;7.00;;;1.85;;
37201;SDS011;37799;52.390;6.136;2024-02-04T14:56:52;5.65;;;0.88;;